Flight Track Log - Related Links

Times and Time Zones

All times are in EDT time to prevent confusion due to time zone crossing. See the PDT4310 flight status page for this flight to view local times or setup timezone preferences in your user account.

Time Position Orientation Groundspeed Altitude Reporting Facility
EDT Latitude Longitude Course Direction KTS MPH feet Rate Location/Type
Thu 05:34:22 PM 35.2264 -80.9394 90° East 132 152 1,400  Level Atlanta Center
Thu 05:35:11 PM 35.2361 -80.9086 69° East 141 162 2,600 1,309 Climbing Atlanta Center
Thu 05:36:12 PM 35.2347 -80.8578 92° East 156 180 3,800 1,131 Climbing Atlanta Center
Thu 05:37:00 PM 35.1833 -80.5990 90° East  Level FlightAware Approximate
Thu 05:37:13 PM 35.2439 -80.8039 78° East 171 197 4,900  Level Atlanta Center
Thu 05:38:00 PM 35.1982 -80.5073 73° East  Level FlightAware Approximate
Thu 05:38:20 PM 35.2461 -80.7378 88° East 187 215 5,900  Level Atlanta Center
Thu 05:38:56 PM 35.2386 -80.6950 102° East 207 238 6,200 688 Climbing Atlanta Center
Thu 05:39:00 PM 35.2000 -80.4133 90° East  Level FlightAware Approximate
Thu 05:39:56 PM 35.2264 -80.6292 103° East 207 238 7,000  Level Atlanta Center
Thu 05:40:56 PM 35.2228 -80.5658 94° East 202 232 8,000 1,000 Climbing Atlanta Center
Thu 05:41:56 PM 35.2186 -80.4975 94° East 202 232 9,000 1,000 Climbing Atlanta Center
Thu 05:42:56 PM 35.2125 -80.4289 96° East 202 232 10,000 1,050 Climbing Atlanta Center
Thu 05:43:56 PM 35.2103 -80.3606 92° East 208 239 11,100 1,050 Climbing Atlanta Center
Thu 05:44:56 PM 35.2125 -80.2917 88° East 203 234 12,100 928 Climbing Atlanta Center
Thu 05:47:23 PM 35.2108 -80.1169 91° East 199 229 14,300 841 Climbing Washington Center
Thu 05:48:23 PM 35.2089 -80.0558 92° East 199 229 15,000 347 Climbing Washington Center
Thu 05:49:24 PM 35.2078 -79.9719 91° East 212 244 15,000  Level Washington Center
Thu 05:50:24 PM 35.2083 -79.9008 89° East 228 262 15,000  Level Washington Center
Thu 05:51:25 PM 35.2156 -79.8122 84° East 233 268 15,000  Level Washington Center
Thu 05:52:26 PM 35.1844 -79.7497 121° Southeast 228 262 15,000  Level Washington Center
Thu 05:53:23 PM 35.1411 -79.6736 125° Southeast 245 282 15,000  Level Washington Center
Thu 05:54:24 PM 35.1414 -79.6053 90° East 218 251 15,000  Level Washington Center
Thu 05:55:25 PM 35.1592 -79.5144 77° East 230 265 15,000  Level Washington Center
Thu 05:56:25 PM 35.1758 -79.4442 74° East 244 281 15,000  Level Washington Center
Thu 05:57:23 PM 35.1975 -79.3589 73° East 239 275 15,000  Level Washington Center
Thu 05:58:24 PM 35.2167 -79.2758 74° East 239 275 15,000  Level Washington Center
Thu 05:59:24 PM 35.2339 -79.1953 75° East 239 275 15,000  Level Washington Center
Thu 06:00:24 PM 35.2486 -79.1144 77° East 239 275 15,000  Level Washington Center
Thu 06:01:25 PM 35.2678 -79.0339 74° East 239 275 15,000 -50 Level Washington Center
Thu 06:02:23 PM 35.2867 -78.9533 74° East 239 275 14,900 -403 Descending Washington Center
Thu 06:03:24 PM 35.3058 -78.8703 74° East 246 283 14,200 -689 Descending Washington Center
Thu 06:04:25 PM 35.3228 -78.7817 77° East 256 295 13,500 -702 Descending Washington Center
Thu 06:04:58 PM 35.3303 -78.7361 79° East 267 307 13,100 -720 Descending Washington Center
Thu 06:06:05 PM 35.3578 -78.6356 71° East 266 306 12,300 -716 Descending Washington Center
Thu 06:07:12 PM 35.3789 -78.5469 74° East 267 307 11,500 -661 Descending Washington Center
Thu 06:08:12 PM 35.4000 -78.4561 74° East 266 306 10,900 -446 Descending Washington Center
Thu 06:09:13 PM 35.4206 -78.3703 74° East 252 290 10,600 -496 Descending Washington Center
Thu 06:10:13 PM 35.4414 -78.2894 72° East 254 292 9,900 -850 Descending Washington Center
Thu 06:11:13 PM 35.4619 -78.2008 74° East 260 299 8,900 -969 Descending Washington Center
Thu 06:12:23 PM 35.4767 -78.1044 79° East 281 323 7,800 -962 Descending Washington Center
Thu 06:13:24 PM 35.4911 -78.0156 79° East 275 316 6,800 -992 Descending Washington Center
Thu 06:14:24 PM 35.5136 -77.9319 72° East 263 303 5,800 -992 Descending Washington Center
Thu 06:15:25 PM 35.5339 -77.8508 73° East 248 285 4,800 -1,008 Descending Washington Center
Thu 06:16:23 PM 35.5519 -77.7722 74° East 242 278 3,800 -1,008 Descending Washington Center
Thu 06:17:24 PM 35.5681 -77.6936 76° East 242 278 2,800 -793 Descending Washington Center
Thu 06:18:24 PM 35.5861 -77.6150 74° East 242 278 2,200 -600 Descending Washington Center

Login

Don't have an account? Register now (free) for customized features, flight alerts, and more!